Terminal Aerodrome Forecast
Issued by NWS

Home | Current Version | Previous Version | Text Only | Print | Product List | Glossary On
Versions: 1 2 3 4 5 6 7 8 9 10 11 12 13 14 15 16 17 18 19 20 21 22 23 24 25 26
000
FTUS45 KSLC 240437 AAA
TAFPVU
TAF AMD
KPVU 240437Z 2405/2424 VRB04KT 1/4SM FG SCT002
     FM240600 VRB05KT P6SM VCSH SCT020 BKN040
     FM241000 30009KT 3SM -SHSN BR BKN015 BKN040
     FM241400 30007KT P6SM VCSH SCT020 BKN050=

USA.gov is the U.S. government's official web portal to all federal, state and local government web resources and services.